Burlingame, Kansas
Current Conditions -  °F | °C
As of 8:53 AM on Wednesday 26 Nov 2014 (Local Time) from KFOE Reporting Station
Overcast Overcast  
Wind Chill: 34°   Ceiling: 7000
Heat Index: 42°   Visibility: 10mi
Dew Point: 31°   Wind: 18mph
Humidity: 65%   Direction: 320°NW
Pressure: 29.99"   Gusts: 29mph
Location:  38.75°N, 95.83°W
Report Text: KFOE 261453Z 32016G25KT 10SM OVC070 06/M01 A2999 RMK AO2 SLP161 T00561006 51017
Loading
Personal Weather Stations






























Interactive Weather Map New forecast layout! Learn more

10-Day Weather Forecast

Advertisements
Track Severe Weather on mobile